Time;durP1;ratioP1;P1;durP2;ratioP2;P2;SDS_P1;SDS_P2;PMS_P1;PMS_P2;Temp;Humidity;BMP_temperature;BMP_pressure;BME280_temperature;BME280_humidity;BME280_pressure;Samples;Min_cycle;Max_cycle;Signal;HPM_P1;HPM_P2
2023/12/12 00:01:07;;;;;;;1.95;1.20;;;;;;;;;;5079663;28;20041;-80
2023/12/12 00:03:32;;;;;;;1.73;1.63;;;;;;;;;;5075262;28;20048;-77
2023/12/12 00:05:58;;;;;;;1.27;1.17;;;;;;;;;;5082974;28;20040;-77
2023/12/12 00:08:23;;;;;;;2.15;1.52;;;;;;;;;;5079218;28;20032;-77
2023/12/12 00:10:48;;;;;;;1.90;1.60;;;;;;;;;;5078628;28;20070;-78
2023/12/12 00:13:14;;;;;;;2.80;2.00;;;;;;;;;;5067475;28;20416;-76
2023/12/12 00:15:39;;;;;;;3.38;1.52;;;;;;;;;;5075390;28;20558;-78
2023/12/12 00:18:05;;;;;;;2.97;1.70;;;;;;;;;;5075089;28;20028;-75
2023/12/12 00:20:30;;;;;;;1.70;1.30;;;;;;;;;;5071761;28;20176;-76
2023/12/12 00:22:55;;;;;;;4.10;1.70;;;;;;;;;;5075448;28;20024;-76
2023/12/12 00:25:21;;;;;;;2.58;1.23;;;;;;;;;;5073945;28;20035;-76
2023/12/12 00:27:46;;;;;;;2.45;1.63;;;;;;;;;;5061334;28;20122;-77
2023/12/12 00:30:13;;;;;;;2.13;1.23;;;;;;;;;;5075868;28;20040;-76
2023/12/12 00:32:38;;;;;;;1.75;1.30;;;;;;;;;;5055624;28;20047;-77
2023/12/12 00:35:06;;;;;;;2.83;1.40;;;;;;;;;;5074439;28;20397;-77
2023/12/12 00:37:31;;;;;;;2.08;1.70;;;;;;;;;;5077111;28;20556;-76
2023/12/12 00:39:57;;;;;;;1.60;0.80;;;;;;;;;;5072754;28;20048;-76
2023/12/12 00:42:23;;;;;;;3.10;1.70;;;;;;;;;;5064390;28;20083;-76
2023/12/12 00:44:48;;;;;;;2.20;0.85;;;;;;;;;;5075399;28;20547;-75
2023/12/12 00:47:14;;;;;;;2.47;1.60;;;;;;;;;;5070332;28;20036;-76
2023/12/12 00:49:39;;;;;;;3.50;1.70;;;;;;;;;;5062328;28;20064;-76
2023/12/12 00:52:05;;;;;;;2.03;1.45;;;;;;;;;;5071422;28;20060;-75
2023/12/12 00:54:30;;;;;;;2.40;1.70;;;;;;;;;;5073244;28;20570;-76
2023/12/12 00:56:55;;;;;;;0.77;0.70;;;;;;;;;;5060867;28;20055;-76
2023/12/12 00:59:21;;;;;;;1.20;1.10;;;;;;;;;;5075303;28;20727;-80
2023/12/12 01:01:46;;;;;;;1.20;1.00;;;;;;;;;;5066088;28;20036;-79
2023/12/12 01:04:12;;;;;;;1.52;1.40;;;;;;;;;;5077343;28;20100;-74
2023/12/12 01:06:37;;;;;;;2.80;1.63;;;;;;;;;;5078310;28;20044;-74
2023/12/12 01:09:02;;;;;;;1.55;1.45;;;;;;;;;;5074905;28;20032;-74
2023/12/12 01:11:28;;;;;;;1.48;1.30;;;;;;;;;;5061807;28;20038;-73
2023/12/12 01:13:53;;;;;;;3.22;1.50;;;;;;;;;;5069839;28;20523;-76
2023/12/12 01:16:18;;;;;;;3.15;1.48;;;;;;;;;;5075021;28;20040;-74
2023/12/12 01:18:44;;;;;;;1.98;1.20;;;;;;;;;;5066218;28;20075;-74
2023/12/12 01:21:09;;;;;;;1.33;1.20;;;;;;;;;;5071839;28;20039;-73
2023/12/12 01:23:52;;;;;;;1.67;1.33;;;;;;;;;;5066924;28;20040;-73
2023/12/12 01:26:19;;;;;;;2.72;1.20;;;;;;;;;;5032923;28;20067;-73
2023/12/12 01:28:45;;;;;;;1.20;1.10;;;;;;;;;;5075731;28;20039;-74
2023/12/12 01:31:10;;;;;;;1.33;0.95;;;;;;;;;;5073428;28;20033;-73
2023/12/12 01:33:36;;;;;;;1.00;0.80;;;;;;;;;;5057913;28;20040;-73
2023/12/12 01:36:01;;;;;;;0.80;0.80;;;;;;;;;;5072171;28;20040;-74
2023/12/12 01:38:27;;;;;;;1.00;1.00;;;;;;;;;;5066641;28;20043;-75
2023/12/12 01:40:53;;;;;;;2.40;1.17;;;;;;;;;;5070735;28;20040;-74
2023/12/12 01:43:26;;;;;;;1.88;0.90;;;;;;;;;;5074721;28;20036;-73
2023/12/12 01:45:55;;;;;;;0.98;0.95;;;;;;;;;;5076764;28;20519;-76
2023/12/12 01:48:21;;;;;;;1.25;1.15;;;;;;;;;;5057000;28;20081;-77
2023/12/12 01:50:47;;;;;;;1.30;1.02;;;;;;;;;;5073988;28;20047;-74
2023/12/12 01:53:13;;;;;;;1.58;1.30;;;;;;;;;;5055644;28;20037;-75
2023/12/12 01:55:41;;;;;;;1.58;1.08;;;;;;;;;;5074466;28;20144;-75
2023/12/12 01:58:06;;;;;;;2.78;0.98;;;;;;;;;;5077651;28;20028;-74
2023/12/12 02:00:32;;;;;;;1.88;1.15;;;;;;;;;;5076314;28;20085;-74
2023/12/12 02:02:57;;;;;;;2.15;0.80;;;;;;;;;;5069151;28;20385;-76
2023/12/12 02:05:25;;;;;;;1.85;0.75;;;;;;;;;;5073988;28;20028;-75
2023/12/12 02:07:52;;;;;;;1.25;0.80;;;;;;;;;;5031118;28;20107;-73
2023/12/12 02:10:19;;;;;;;0.88;0.75;;;;;;;;;;5057268;28;20024;-76
2023/12/12 02:12:44;;;;;;;1.50;0.90;;;;;;;;;;5062344;28;20058;-75
2023/12/12 02:15:09;;;;;;;0.70;0.70;;;;;;;;;;5071820;28;20524;-74
2023/12/12 02:17:35;;;;;;;1.33;1.23;;;;;;;;;;5069234;28;20040;-74
2023/12/12 02:20:00;;;;;;;1.27;0.63;;;;;;;;;;5063720;28;20052;-75
2023/12/12 02:22:26;;;;;;;0.80;0.80;;;;;;;;;;5075969;28;20040;-74
2023/12/12 02:24:52;;;;;;;0.85;0.60;;;;;;;;;;5069907;28;20044;-74
2023/12/12 02:27:18;;;;;;;0.93;0.80;;;;;;;;;;5072337;28;20135;-74
2023/12/12 02:29:43;;;;;;;2.20;1.00;;;;;;;;;;5073290;28;20055;-76
2023/12/12 02:32:09;;;;;;;1.00;0.88;;;;;;;;;;5067841;28;20535;-73
2023/12/12 02:34:34;;;;;;;2.25;1.10;;;;;;;;;;5063741;28;20032;-74
2023/12/12 02:37:00;;;;;;;2.47;1.10;;;;;;;;;;5071384;28;20043;-73
2023/12/12 02:39:25;;;;;;;1.00;1.00;;;;;;;;;;5075532;28;20042;-73
2023/12/12 02:41:50;;;;;;;0.80;0.80;;;;;;;;;;5073632;28;20509;-75
2023/12/12 02:44:16;;;;;;;1.65;1.13;;;;;;;;;;5073156;28;20043;-74
2023/12/12 02:46:41;;;;;;;1.10;1.00;;;;;;;;;;5061327;28;20036;-77
2023/12/12 02:49:07;;;;;;;1.63;1.52;;;;;;;;;;5066561;28;20134;-74
2023/12/12 02:51:32;;;;;;;1.17;0.90;;;;;;;;;;5059082;28;20052;-74
2023/12/12 02:53:58;;;;;;;2.25;1.20;;;;;;;;;;5076946;28;20036;-75
2023/12/12 02:56:23;;;;;;;1.65;1.02;;;;;;;;;;5076459;28;20502;-77
2023/12/12 02:58:48;;;;;;;1.13;1.02;;;;;;;;;;5070258;28;20039;-74
2023/12/12 03:01:14;;;;;;;1.90;1.20;;;;;;;;;;5061239;28;20053;-74
2023/12/12 03:03:39;;;;;;;1.20;0.90;;;;;;;;;;5047575;28;20047;-74
2023/12/12 03:06:07;;;;;;;1.65;1.20;;;;;;;;;;5058783;28;20441;-75
2023/12/12 03:08:32;;;;;;;3.22;1.10;;;;;;;;;;5065832;28;20044;-73
2023/12/12 03:10:58;;;;;;;3.53;1.40;;;;;;;;;;5068640;28;20078;-73
2023/12/12 03:13:23;;;;;;;1.10;0.88;;;;;;;;;;5070782;28;20506;-76
2023/12/12 03:15:48;;;;;;;2.17;1.10;;;;;;;;;;5067353;28;20036;-75
2023/12/12 03:18:14;;;;;;;1.77;1.00;;;;;;;;;;5058920;28;20177;-74
2023/12/12 03:20:39;;;;;;;2.97;1.35;;;;;;;;;;5079392;28;20035;-76
2023/12/12 03:23:05;;;;;;;1.60;1.38;;;;;;;;;;5075379;28;20175;-74
2023/12/12 03:25:30;;;;;;;1.40;1.17;;;;;;;;;;5073943;28;20032;-76
2023/12/12 03:27:55;;;;;;;4.25;1.35;;;;;;;;;;5072285;28;20476;-75
2023/12/12 03:30:21;;;;;;;2.30;1.10;;;;;;;;;;5077592;28;20031;-74
2023/12/12 03:32:47;;;;;;;3.88;1.45;;;;;;;;;;5060692;28;20038;-74
2023/12/12 03:35:12;;;;;;;1.17;1.08;;;;;;;;;;5078404;28;20040;-75
2023/12/12 03:37:37;;;;;;;2.33;1.23;;;;;;;;;;5077713;28;20040;-76
2023/12/12 03:40:03;;;;;;;1.40;0.77;;;;;;;;;;5075146;28;20119;-73
2023/12/12 03:42:28;;;;;;;1.42;1.13;;;;;;;;;;5080417;28;20040;-76
2023/12/12 03:44:54;;;;;;;0.60;0.60;;;;;;;;;;5072438;28;20024;-75
2023/12/12 03:47:19;;;;;;;2.08;1.08;;;;;;;;;;5063968;28;20032;-74
2023/12/12 03:49:44;;;;;;;1.10;1.00;;;;;;;;;;5070550;28;20032;-74
2023/12/12 03:52:10;;;;;;;2.05;1.15;;;;;;;;;;5076504;28;20516;-75
2023/12/12 03:54:35;;;;;;;1.27;1.10;;;;;;;;;;5074500;28;20041;-77
2023/12/12 03:57:01;;;;;;;1.58;0.95;;;;;;;;;;5062890;28;20768;-75
2023/12/12 03:59:26;;;;;;;1.20;1.10;;;;;;;;;;5049248;28;20047;-75
2023/12/12 04:01:51;;;;;;;1.08;0.98;;;;;;;;;;5048784;28;20041;-74
2023/12/12 04:04:17;;;;;;;2.70;1.13;;;;;;;;;;5078151;28;20032;-76
2023/12/12 04:06:47;;;;;;;1.08;0.98;;;;;;;;;;5081569;27;20146;-76
2023/12/12 04:09:12;;;;;;;1.52;1.08;;;;;;;;;;5076824;28;20042;-77
2023/12/12 04:11:38;;;;;;;1.95;1.00;;;;;;;;;;5061351;28;20123;-77
2023/12/12 04:14:03;;;;;;;2.05;1.08;;;;;;;;;;5078785;28;20437;-77
2023/12/12 04:16:29;;;;;;;0.98;0.70;;;;;;;;;;5069808;28;20037;-76
2023/12/12 04:18:54;;;;;;;3.17;1.27;;;;;;;;;;5073537;28;20634;-74
2023/12/12 04:21:19;;;;;;;1.70;1.02;;;;;;;;;;5075646;28;20028;-75
2023/12/12 04:23:45;;;;;;;2.65;1.40;;;;;;;;;;5062262;28;20594;-77
2023/12/12 04:26:12;;;;;;;1.55;0.85;;;;;;;;;;5075388;28;20039;-78
2023/12/12 04:28:38;;;;;;;1.55;1.35;;;;;;;;;;5065779;28;20036;-77
2023/12/12 04:31:03;;;;;;;2.25;1.30;;;;;;;;;;5075431;28;20039;-77
2023/12/12 04:33:29;;;;;;;4.22;2.08;;;;;;;;;;5074813;28;20048;-75
2023/12/12 04:35:54;;;;;;;4.18;1.80;;;;;;;;;;5072599;28;20055;-79
2023/12/12 04:38:20;;;;;;;1.65;1.25;;;;;;;;;;5079925;28;20114;-78
2023/12/12 04:40:45;;;;;;;5.22;2.65;;;;;;;;;;5080672;28;20034;-78
2023/12/12 04:43:10;;;;;;;2.97;1.88;;;;;;;;;;5068039;28;20098;-75
2023/12/12 04:45:36;;;;;;;2.25;1.70;;;;;;;;;;5079130;28;20103;-77
2023/12/12 04:48:01;;;;;;;2.72;1.77;;;;;;;;;;5073560;28;20063;-75
2023/12/12 04:50:26;;;;;;;2.15;1.45;;;;;;;;;;5078071;28;20418;-78
2023/12/12 04:52:52;;;;;;;5.28;2.38;;;;;;;;;;5074851;28;20042;-77
2023/12/12 04:55:17;;;;;;;4.75;2.65;;;;;;;;;;5078143;28;20110;-77
2023/12/12 04:57:43;;;;;;;1.98;1.60;;;;;;;;;;5066498;28;20047;-77
2023/12/12 05:00:13;;;;;;;3.63;2.38;;;;;;;;;;5068469;28;20032;-77
2023/12/12 05:02:40;;;;;;;3.33;2.20;;;;;;;;;;5074928;28;20036;-76
2023/12/12 05:05:05;;;;;;;2.58;1.70;;;;;;;;;;5081286;28;20036;-77
2023/12/12 05:07:31;;;;;;;3.67;2.28;;;;;;;;;;5073363;28;20044;-78
2023/12/12 05:09:56;;;;;;;2.15;1.90;;;;;;;;;;5078439;28;20132;-76
2023/12/12 05:12:22;;;;;;;3.67;2.00;;;;;;;;;;5064372;28;20043;-78
2023/12/12 05:14:47;;;;;;;3.08;1.70;;;;;;;;;;5079325;28;20036;-78
2023/12/12 05:17:12;;;;;;;2.80;1.30;;;;;;;;;;5076082;28;20035;-77
2023/12/12 05:19:38;;;;;;;4.95;1.92;;;;;;;;;;5074023;28;20040;-78
2023/12/12 05:22:04;;;;;;;3.08;1.75;;;;;;;;;;5075762;28;20028;-75
2023/12/12 05:24:29;;;;;;;2.90;1.83;;;;;;;;;;5074888;28;20039;-76
2023/12/12 05:26:54;;;;;;;3.13;2.25;;;;;;;;;;5072018;28;20044;-77
2023/12/12 05:29:20;;;;;;;4.15;2.40;;;;;;;;;;5072156;28;20119;-77
2023/12/12 05:31:45;;;;;;;6.18;2.55;;;;;;;;;;5073528;28;20047;-76
2023/12/12 05:34:10;;;;;;;3.13;2.13;;;;;;;;;;5076122;28;20024;-74
2023/12/12 05:36:36;;;;;;;2.20;1.65;;;;;;;;;;5072599;28;20032;-78
2023/12/12 05:39:02;;;;;;;4.25;2.35;;;;;;;;;;5079544;28;20428;-76
2023/12/12 05:41:27;;;;;;;3.97;2.40;;;;;;;;;;5066760;28;20060;-77
2023/12/12 05:43:53;;;;;;;2.97;1.77;;;;;;;;;;5078142;28;20036;-78
2023/12/12 05:46:18;;;;;;;5.53;2.75;;;;;;;;;;5079296;28;20527;-74
2023/12/12 05:48:44;;;;;;;6.30;2.70;;;;;;;;;;5072709;28;20127;-77
2023/12/12 05:51:09;;;;;;;3.38;2.45;;;;;;;;;;5073243;28;20032;-77
2023/12/12 05:53:35;;;;;;;2.05;1.45;;;;;;;;;;5078236;28;20067;-76
2023/12/12 05:56:00;;;;;;;5.55;2.35;;;;;;;;;;5049284;28;20041;-75
2023/12/12 05:58:25;;;;;;;4.45;2.42;;;;;;;;;;5078349;28;20047;-77
2023/12/12 06:00:51;;;;;;;3.00;2.00;;;;;;;;;;5072315;28;20040;-77
2023/12/12 06:03:18;;;;;;;1.27;1.10;;;;;;;;;;5064854;28;20527;-76
2023/12/12 06:05:43;;;;;;;2.70;1.92;;;;;;;;;;5076873;28;20028;-76
2023/12/12 06:08:09;;;;;;;5.07;2.40;;;;;;;;;;5042843;28;20038;-74
2023/12/12 06:10:34;;;;;;;4.75;1.75;;;;;;;;;;5061921;28;20052;-76
2023/12/12 06:12:59;;;;;;;4.45;2.50;;;;;;;;;;5074662;28;20040;-77
2023/12/12 06:15:25;;;;;;;3.83;1.90;;;;;;;;;;5077039;28;20044;-76
2023/12/12 06:17:50;;;;;;;6.50;2.95;;;;;;;;;;5071070;28;20608;-73
2023/12/12 06:20:16;;;;;;;4.07;2.28;;;;;;;;;;5075285;28;20036;-74
2023/12/12 06:22:41;;;;;;;2.28;1.63;;;;;;;;;;5073314;28;20041;-74
2023/12/12 06:25:08;;;;;;;4.50;2.20;;;;;;;;;;5008047;28;20559;-74
2023/12/12 06:27:34;;;;;;;3.55;1.90;;;;;;;;;;5034404;28;20060;-74
2023/12/12 06:29:59;;;;;;;3.60;2.30;;;;;;;;;;5034277;28;20064;-74
2023/12/12 06:32:24;;;;;;;5.28;2.03;;;;;;;;;;5037524;28;20529;-75
2023/12/12 06:34:50;;;;;;;3.00;1.27;;;;;;;;;;5049987;28;20118;-73
2023/12/12 06:37:15;;;;;;;5.43;2.85;;;;;;;;;;5044175;28;20123;-73
2023/12/12 06:39:41;;;;;;;6.90;2.60;;;;;;;;;;5051009;28;20051;-76
2023/12/12 06:42:06;;;;;;;5.00;2.25;;;;;;;;;;5053478;28;20525;-75
2023/12/12 06:44:31;;;;;;;3.65;2.60;;;;;;;;;;5031804;28;20045;-74
2023/12/12 06:46:57;;;;;;;3.58;2.20;;;;;;;;;;5042284;28;20496;-76
2023/12/12 06:49:23;;;;;;;4.47;2.08;;;;;;;;;;5031443;28;20537;-75
2023/12/12 06:51:49;;;;;;;2.92;1.80;;;;;;;;;;5019783;28;20098;-75
2023/12/12 06:54:15;;;;;;;5.50;2.65;;;;;;;;;;5031439;28;20037;-74
2023/12/12 06:56:41;;;;;;;5.32;2.70;;;;;;;;;;5029793;28;20056;-76
2023/12/12 06:59:07;;;;;;;7.18;3.22;;;;;;;;;;5033456;28;20751;-74
2023/12/12 07:01:33;;;;;;;4.32;2.13;;;;;;;;;;5035918;28;20102;-75
2023/12/12 07:03:58;;;;;;;4.40;2.50;;;;;;;;;;5038462;28;20043;-73
2023/12/12 07:06:23;;;;;;;6.72;2.85;;;;;;;;;;5023984;28;20485;-73
2023/12/12 07:08:49;;;;;;;7.47;2.72;;;;;;;;;;5032130;28;20044;-74
2023/12/12 07:11:16;;;;;;;6.20;3.05;;;;;;;;;;5033604;28;20393;-74
2023/12/12 07:13:41;;;;;;;4.97;2.60;;;;;;;;;;5011748;28;20060;-75
2023/12/12 07:16:10;;;;;;;3.15;1.40;;;;;;;;;;5034339;28;20036;-74
2023/12/12 07:18:37;;;;;;;4.60;2.58;;;;;;;;;;5029241;28;20160;-75
2023/12/12 07:21:02;;;;;;;4.82;2.38;;;;;;;;;;5034180;28;20036;-75
2023/12/12 07:23:29;;;;;;;4.35;2.40;;;;;;;;;;5032141;28;20417;-74
2023/12/12 07:25:56;;;;;;;4.80;1.98;;;;;;;;;;5037673;28;20559;-75
2023/12/12 07:28:22;;;;;;;6.53;2.40;;;;;;;;;;5029641;28;20584;-78
2023/12/12 07:30:48;;;;;;;2.45;1.27;;;;;;;;;;5047783;28;20032;-73
2023/12/12 07:33:13;;;;;;;1.75;1.23;;;;;;;;;;5037486;28;20045;-75
2023/12/12 07:35:39;;;;;;;1.50;0.85;;;;;;;;;;5023990;28;20050;-74
2023/12/12 07:38:04;;;;;;;7.05;2.38;;;;;;;;;;5035115;28;20043;-74
2023/12/12 07:40:30;;;;;;;3.00;1.98;;;;;;;;;;5033976;28;20041;-74
2023/12/12 07:42:56;;;;;;;5.32;2.10;;;;;;;;;;5037179;28;20035;-75
2023/12/12 07:45:22;;;;;;;4.30;1.70;;;;;;;;;;5029972;28;20094;-75
2023/12/12 07:47:48;;;;;;;8.98;1.98;;;;;;;;;;5022546;28;20037;-75
2023/12/12 07:50:17;;;;;;;5.80;1.80;;;;;;;;;;5033139;28;20044;-74
2023/12/12 07:52:43;;;;;;;4.07;1.63;;;;;;;;;;5034301;28;20040;-74
2023/12/12 07:55:08;;;;;;;4.70;1.88;;;;;;;;;;5019991;28;20037;-74
2023/12/12 07:57:34;;;;;;;5.75;2.00;;;;;;;;;;5034597;28;20083;-74
2023/12/12 07:59:59;;;;;;;3.90;1.45;;;;;;;;;;5036105;28;20437;-75
2023/12/12 08:02:25;;;;;;;4.22;1.70;;;;;;;;;;5025625;28;20053;-75
2023/12/12 08:04:51;;;;;;;4.85;2.25;;;;;;;;;;5035518;28;20037;-74
2023/12/12 08:07:16;;;;;;;2.78;1.65;;;;;;;;;;5036011;28;20584;-74
2023/12/12 08:09:42;;;;;;;4.63;1.42;;;;;;;;;;5032019;28;20044;-74
2023/12/12 08:12:07;;;;;;;2.97;1.30;;;;;;;;;;5033452;28;20115;-74
2023/12/12 08:14:33;;;;;;;2.05;1.20;;;;;;;;;;5034187;28;20037;-74
2023/12/12 08:16:58;;;;;;;8.85;2.47;;;;;;;;;;5011207;28;20413;-73
2023/12/12 08:19:24;;;;;;;6.38;1.73;;;;;;;;;;5033271;28;20118;-75
2023/12/12 08:21:49;;;;;;;3.03;2.00;;;;;;;;;;5033992;28;20595;-74
2023/12/12 08:24:15;;;;;;;8.57;2.00;;;;;;;;;;5018254;28;20029;-75
2023/12/12 08:26:46;;;;;;;9.52;2.15;;;;;;;;;;5035581;28;20060;-75
2023/12/12 08:29:14;;;;;;;5.18;2.00;;;;;;;;;;5035650;28;20063;-76
2023/12/12 08:31:39;;;;;;;9.15;2.28;;;;;;;;;;5024763;28;20042;-75
2023/12/12 08:34:05;;;;;;;6.13;2.00;;;;;;;;;;5034473;28;20383;-75
2023/12/12 08:36:31;;;;;;;4.43;1.45;;;;;;;;;;5034279;28;20037;-74
2023/12/12 08:38:58;;;;;;;6.05;1.50;;;;;;;;;;5036025;28;20567;-75
2023/12/12 08:41:27;;;;;;;5.30;1.60;;;;;;;;;;5034713;28;20590;-75
2023/12/12 08:43:53;;;;;;;5.30;1.67;;;;;;;;;;5025005;28;20079;-74
2023/12/12 08:46:21;;;;;;;15.98;2.28;;;;;;;;;;5034559;28;20044;-75
2023/12/12 08:48:47;;;;;;;8.63;2.30;;;;;;;;;;5030259;28;20048;-75
2023/12/12 08:51:13;;;;;;;3.45;1.70;;;;;;;;;;5044887;28;20118;-75
2023/12/12 08:53:38;;;;;;;3.53;1.48;;;;;;;;;;5040634;28;20033;-74
2023/12/12 08:56:10;;;;;;;7.05;1.73;;;;;;;;;;5035257;28;20040;-75
2023/12/12 08:58:36;;;;;;;12.07;2.10;;;;;;;;;;5038411;28;20038;-74
2023/12/12 09:01:01;;;;;;;6.82;2.30;;;;;;;;;;5050243;28;20414;-74
2023/12/12 09:03:27;;;;;;;5.90;2.35;;;;;;;;;;5039622;28;20090;-74
2023/12/12 09:05:52;;;;;;;9.77;2.65;;;;;;;;;;5034985;28;20523;-75
2023/12/12 09:08:17;;;;;;;8.20;2.20;;;;;;;;;;5034073;28;20033;-74
2023/12/12 09:10:43;;;;;;;9.50;3.08;;;;;;;;;;5034080;28;20064;-75
2023/12/12 09:13:08;;;;;;;4.80;1.77;;;;;;;;;;5040511;28;20029;-74
2023/12/12 09:15:34;;;;;;;4.40;1.73;;;;;;;;;;5032761;28;20123;-75
2023/12/12 09:18:00;;;;;;;6.05;2.05;;;;;;;;;;5032281;28;20116;-75
2023/12/12 09:20:25;;;;;;;8.85;2.78;;;;;;;;;;5031304;28;20776;-74
2023/12/12 09:22:50;;;;;;;10.13;2.10;;;;;;;;;;5032954;28;20036;-74
2023/12/12 09:25:16;;;;;;;5.95;1.98;;;;;;;;;;5034547;28;20044;-75
2023/12/12 09:27:41;;;;;;;6.80;2.13;;;;;;;;;;5024263;28;20444;-75
2023/12/12 09:30:07;;;;;;;1.77;0.73;;;;;;;;;;5034569;28;20182;-75
2023/12/12 09:32:32;;;;;;;3.95;1.35;;;;;;;;;;5032409;28;20042;-75
2023/12/12 09:34:58;;;;;;;10.05;2.50;;;;;;;;;;5033463;28;20040;-74
2023/12/12 09:37:23;;;;;;;4.60;2.33;;;;;;;;;;5039201;28;20032;-74
2023/12/12 09:39:49;;;;;;;5.00;1.90;;;;;;;;;;5041329;28;20033;-73
2023/12/12 09:42:17;;;;;;;8.77;2.40;;;;;;;;;;5029804;28;20047;-75
2023/12/12 09:44:46;;;;;;;12.35;2.80;;;;;;;;;;5041443;28;20048;-73
2023/12/12 09:47:13;;;;;;;4.15;1.23;;;;;;;;;;5033323;28;20044;-73
2023/12/12 09:49:39;;;;;;;7.13;2.38;;;;;;;;;;5039972;28;20033;-73
2023/12/12 09:52:05;;;;;;;11.15;2.13;;;;;;;;;;5038973;28;20051;-74
2023/12/12 09:54:31;;;;;;;4.93;2.20;;;;;;;;;;5057413;28;20043;-75
2023/12/12 09:56:56;;;;;;;7.57;2.38;;;;;;;;;;5033545;28;20042;-75
2023/12/12 09:59:21;;;;;;;7.15;1.48;;;;;;;;;;5040029;28;20725;-74
2023/12/12 10:01:49;;;;;;;5.78;1.90;;;;;;;;;;5039431;28;20045;-74
2023/12/12 10:04:18;;;;;;;10.85;2.00;;;;;;;;;;5037855;28;20454;-75
2023/12/12 10:06:52;;;;;;;13.35;2.55;;;;;;;;;;5039393;28;20037;-73
2023/12/12 10:09:19;;;;;;;4.07;1.13;;;;;;;;;;5030696;28;20036;-74
2023/12/12 10:11:45;;;;;;;7.70;1.45;;;;;;;;;;5021919;28;20399;-74
2023/12/12 10:14:11;;;;;;;10.05;1.60;;;;;;;;;;5040149;28;20048;-74
2023/12/12 10:16:36;;;;;;;6.43;1.92;;;;;;;;;;5034441;28;20103;-74
2023/12/12 10:19:03;;;;;;;5.07;1.73;;;;;;;;;;5037225;28;20051;-75
2023/12/12 10:21:29;;;;;;;13.18;2.95;;;;;;;;;;5038094;28;20033;-75
2023/12/12 10:23:55;;;;;;;7.85;2.08;;;;;;;;;;5029394;28;20088;-75
2023/12/12 10:26:25;;;;;;;10.73;2.42;;;;;;;;;;5034758;28;20060;-75
2023/12/12 10:28:52;;;;;;;10.90;2.93;;;;;;;;;;5048720;28;20049;-74
2023/12/12 10:31:19;;;;;;;6.80;1.92;;;;;;;;;;5032402;28;20042;-75
2023/12/12 10:33:45;;;;;;;11.27;1.90;;;;;;;;;;5033025;28;20429;-75
2023/12/12 10:36:10;;;;;;;6.80;1.67;;;;;;;;;;5032065;28;20039;-74
2023/12/12 10:38:38;;;;;;;6.00;1.67;;;;;;;;;;5033069;28;20068;-74
2023/12/12 10:41:19;;;;;;;6.88;1.90;;;;;;;;;;5034713;28;20041;-75
2023/12/12 10:43:46;;;;;;;;;;;;;;;;;;5034877;28;20021;-74
2023/12/12 10:46:15;;;;;;;8.65;2.28;;;;;;;;;;5033999;28;20000;-74
2023/12/12 10:48:44;;;;;;;8.45;1.48;;;;;;;;;;5020994;28;20048;-74
2023/12/12 10:51:14;;;;;;;8.75;2.05;;;;;;;;;;5029108;28;20079;-75
2023/12/12 10:53:44;;;;;;;6.72;1.65;;;;;;;;;;5031620;28;20033;-75
2023/12/12 10:56:11;;;;;;;7.10;2.15;;;;;;;;;;5030408;28;20036;-74
2023/12/12 10:58:39;;;;;;;9.93;2.20;;;;;;;;;;5033069;28;20040;-74
2023/12/12 11:01:07;;;;;;;12.57;2.10;;;;;;;;;;5027893;28;20043;-75
2023/12/12 11:03:35;;;;;;;15.77;4.53;;;;;;;;;;5038573;28;20041;-75
2023/12/12 11:06:01;;;;;;;9.93;2.35;;;;;;;;;;5042475;28;20101;-74
2023/12/12 11:08:27;;;;;;;8.65;2.30;;;;;;;;;;5050458;28;20044;-75
2023/12/12 11:10:54;;;;;;;11.05;2.55;;;;;;;;;;5036150;28;20045;-74
2023/12/12 11:13:28;;;;;;;8.65;2.50;;;;;;;;;;5050792;28;20115;-74
2023/12/12 11:15:56;;;;;;;8.48;2.17;;;;;;;;;;5021918;28;20144;-75
2023/12/12 11:18:21;;;;;;;7.93;2.08;;;;;;;;;;5036470;28;20032;-74
2023/12/12 11:20:47;;;;;;;11.40;2.42;;;;;;;;;;5036421;28;20080;-75
2023/12/12 11:23:52;;;;;;;5.72;2.10;;;;;;;;;;5039214;28;20052;-74
2023/12/12 11:26:18;;;;;;;5.45;2.33;;;;;;;;;;5051536;28;20135;-75
2023/12/12 11:28:44;;;;;;;8.05;1.98;;;;;;;;;;5060156;28;20499;-74
2023/12/12 11:31:09;;;;;;;8.20;1.85;;;;;;;;;;5063480;28;20117;-74
2023/12/12 11:33:36;;;;;;;6.90;1.50;;;;;;;;;;5064759;28;20035;-75
2023/12/12 11:36:02;;;;;;;12.95;2.45;;;;;;;;;;5077991;28;20115;-75
2023/12/12 11:38:33;;;;;;;5.60;1.70;;;;;;;;;;5069119;28;20536;-74
2023/12/12 11:41:14;;;;;;;10.93;1.95;;;;;;;;;;5078229;28;20122;-75
2023/12/12 11:43:41;;;;;;;12.55;2.03;;;;;;;;;;5076339;28;20034;-74
2023/12/12 11:46:20;;;;;;;8.35;2.35;;;;;;;;;;5067888;28;20060;-74
2023/12/12 11:48:45;;;;;;;13.38;2.40;;;;;;;;;;5056609;28;20059;-75
2023/12/12 11:51:35;;;;;;;8.63;2.42;;;;;;;;;;5036786;28;20050;-74
2023/12/12 11:54:06;;;;;;;9.40;2.55;;;;;;;;;;5063213;28;20040;-74
2023/12/12 11:56:32;;;;;;;;;;;;;;;;;;5082646;28;20036;-74
2023/12/12 11:58:59;;;;;;;9.30;2.30;;;;;;;;;;5082600;28;20266;-74
2023/12/12 12:01:26;;;;;;;4.72;1.27;;;;;;;;;;5069067;28;20032;-75
2023/12/12 12:03:52;;;;;;;9.88;2.20;;;;;;;;;;5083101;28;20155;-75
2023/12/12 12:06:17;;;;;;;10.60;1.92;;;;;;;;;;5075193;28;20115;-75
2023/12/12 12:08:43;;;;;;;9.10;1.90;;;;;;;;;;5077159;28;20032;-75
2023/12/12 12:11:08;;;;;;;8.45;1.85;;;;;;;;;;5067203;28;20037;-74
2023/12/12 12:13:41;;;;;;;15.00;2.08;;;;;;;;;;5062674;28;20056;-75
2023/12/12 12:16:10;;;;;;;9.55;2.15;;;;;;;;;;5065186;28;20039;-74
2023/12/12 12:18:36;;;;;;;9.98;1.98;;;;;;;;;;5076923;28;20032;-74
2023/12/12 12:21:07;;;;;;;8.27;1.90;;;;;;;;;;5082944;28;20024;-75
2023/12/12 12:23:39;;;;;;;5.38;1.60;;;;;;;;;;5079693;28;20040;-74
2023/12/12 12:26:04;;;;;;;9.57;2.47;;;;;;;;;;5068130;28;20039;-75
2023/12/12 12:28:31;;;;;;;8.48;2.03;;;;;;;;;;5071753;28;20044;-74
2023/12/12 12:30:58;;;;;;;9.15;1.70;;;;;;;;;;5076640;28;20041;-74
2023/12/12 12:33:33;;;;;;;9.68;2.20;;;;;;;;;;5070744;28;20834;-75
2023/12/12 12:35:59;;;;;;;8.45;2.08;;;;;;;;;;5056327;28;20401;-74
2023/12/12 12:38:28;;;;;;;8.20;1.80;;;;;;;;;;5076326;28;20058;-74
2023/12/12 12:40:54;;;;;;;6.30;2.10;;;;;;;;;;5072286;28;20043;-75
2023/12/12 12:43:22;;;;;;;6.18;2.05;;;;;;;;;;5082130;28;20032;-75
2023/12/12 12:45:48;;;;;;;11.52;2.40;;;;;;;;;;5068203;28;20038;-75
2023/12/12 12:48:14;;;;;;;9.75;1.60;;;;;;;;;;5069501;28;20052;-74
2023/12/12 12:50:45;;;;;;;7.97;1.70;;;;;;;;;;5068036;28;20032;-74
2023/12/12 12:53:11;;;;;;;6.18;1.65;;;;;;;;;;5081824;28;20369;-75
2023/12/12 12:55:38;;;;;;;2.88;0.80;;;;;;;;;;5048840;28;20040;-75
2023/12/12 12:58:04;;;;;;;6.43;1.92;;;;;;;;;;5077675;28;20036;-75
2023/12/12 13:00:30;;;;;;;9.43;1.70;;;;;;;;;;5058495;28;20040;-75
2023/12/12 13:02:55;;;;;;;6.13;1.83;;;;;;;;;;5082163;28;20117;-75
2023/12/12 13:05:21;;;;;;;5.18;1.80;;;;;;;;;;5074941;28;20040;-75
2023/12/12 13:07:47;;;;;;;4.80;1.33;;;;;;;;;;5064384;28;20096;-75
2023/12/12 13:10:15;;;;;;;5.80;1.45;;;;;;;;;;5076930;28;20035;-74
2023/12/12 13:12:41;;;;;;;5.57;1.15;;;;;;;;;;5073377;28;20028;-75
2023/12/12 13:15:07;;;;;;;6.90;1.70;;;;;;;;;;5077002;28;20528;-75
2023/12/12 13:17:33;;;;;;;4.93;1.30;;;;;;;;;;5077049;28;20035;-75
2023/12/12 13:20:00;;;;;;;9.35;1.55;;;;;;;;;;5072545;28;20106;-75
2023/12/12 13:22:26;;;;;;;5.07;1.08;;;;;;;;;;5064144;28;20050;-75
2023/12/12 13:24:53;;;;;;;5.03;1.20;;;;;;;;;;5072797;28;20518;-75
2023/12/12 13:27:19;;;;;;;7.57;1.50;;;;;;;;;;5069415;28;20040;-75
2023/12/12 13:29:44;;;;;;;8.02;2.10;;;;;;;;;;5067571;28;20558;-74
2023/12/12 13:32:10;;;;;;;8.32;1.50;;;;;;;;;;5071939;28;20044;-75
2023/12/12 13:34:36;;;;;;;5.70;1.20;;;;;;;;;;5070681;28;20051;-75
2023/12/12 13:37:01;;;;;;;2.95;1.13;;;;;;;;;;5060115;28;20540;-74
2023/12/12 13:39:27;;;;;;;7.00;1.75;;;;;;;;;;5073236;28;20057;-74
2023/12/12 13:41:52;;;;;;;8.10;1.70;;;;;;;;;;5074735;28;20062;-75
2023/12/12 13:44:18;;;;;;;6.78;2.03;;;;;;;;;;5071632;28;20177;-74
2023/12/12 13:46:44;;;;;;;8.05;1.95;;;;;;;;;;5069233;28;20213;-74
2023/12/12 13:49:09;;;;;;;7.20;1.88;;;;;;;;;;5059513;28;20722;-75
2023/12/12 13:51:34;;;;;;;6.15;1.95;;;;;;;;;;5067447;28;20028;-74
2023/12/12 13:54:00;;;;;;;7.63;1.38;;;;;;;;;;5079590;28;20032;-75
2023/12/12 13:56:26;;;;;;;5.68;1.77;;;;;;;;;;5066561;28;20051;-75
2023/12/12 13:58:51;;;;;;;7.07;1.63;;;;;;;;;;5070524;28;20069;-74
2023/12/12 14:01:16;;;;;;;9.48;1.52;;;;;;;;;;5074859;28;20031;-75
2023/12/12 14:03:42;;;;;;;9.80;1.70;;;;;;;;;;5077633;28;20101;-74
2023/12/12 14:06:08;;;;;;;9.15;1.88;;;;;;;;;;5065869;28;20036;-75
2023/12/12 14:08:34;;;;;;;5.78;1.60;;;;;;;;;;5074760;28;20110;-74
2023/12/12 14:10:59;;;;;;;8.98;1.85;;;;;;;;;;5073081;28;20605;-75
2023/12/12 14:13:25;;;;;;;5.88;1.58;;;;;;;;;;5074532;28;20039;-75
2023/12/12 14:15:50;;;;;;;8.18;2.10;;;;;;;;;;5063685;28;20622;-74
2023/12/12 14:18:15;;;;;;;8.80;2.42;;;;;;;;;;5072093;28;20042;-75
2023/12/12 14:20:41;;;;;;;6.75;1.52;;;;;;;;;;5064518;28;20036;-75
2023/12/12 14:23:08;;;;;;;5.28;2.47;;;;;;;;;;5077736;28;20097;-75
2023/12/12 14:25:36;;;;;;;6.60;2.55;;;;;;;;;;5065986;28;20105;-74
2023/12/12 14:28:01;;;;;;;11.23;3.05;;;;;;;;;;5057838;28;20036;-76
2023/12/12 14:30:27;;;;;;;8.10;2.80;;;;;;;;;;5055206;28;20088;-75
2023/12/12 14:32:59;;;;;;;10.23;3.60;;;;;;;;;;5052079;28;20043;-73
2023/12/12 14:35:25;;;;;;;7.85;2.63;;;;;;;;;;5058224;28;20040;-76
2023/12/12 14:37:51;;;;;;;10.25;3.92;;;;;;;;;;5057175;28;20064;-74